Time;durP1;ratioP1;P1;durP2;ratioP2;P2;SDS_P1;SDS_P2;PMS_P1;PMS_P2;Temp;Humidity;BMP_temperature;BMP_pressure;BME280_temperature;BME280_humidity;BME280_pressure;Samples;Min_cycle;Max_cycle;Signal;HPM_P1;HPM_P2
2023/09/29 00:00:15;;;;;;;4.88;1.95;;;20.60;63.60;22.30;101385.00;;;;4952548;28;20214;-82
2023/09/29 00:02:44;;;;;;;6.80;2.20;;;20.60;63.60;22.20;101372.00;;;;4950528;28;20614;-82
2023/09/29 00:05:12;;;;;;;6.45;1.88;;;20.60;63.60;22.30;101376.00;;;;4950706;28;20201;-82
2023/09/29 00:07:38;;;;;;;4.65;1.90;;;20.60;63.60;22.30;101377.00;;;;4950309;28;20211;-82
2023/09/29 00:10:08;;;;;;;4.90;1.90;;;20.50;63.60;22.30;101387.00;;;;4948475;28;20221;-82
2023/09/29 00:12:37;;;;;;;6.78;2.28;;;20.60;63.70;22.20;101383.00;;;;4950400;28;20214;-82
2023/09/29 00:15:06;;;;;;;5.63;2.08;;;20.60;63.70;22.30;101384.00;;;;4965542;28;20567;-82
2023/09/29 00:17:33;;;;;;;4.68;1.77;;;20.60;63.70;22.30;101387.00;;;;4950836;28;20199;-82
2023/09/29 00:20:01;;;;;;;6.25;2.15;;;20.60;63.80;22.30;101381.00;;;;4946598;28;20250;-82
2023/09/29 00:22:29;;;;;;;7.10;2.08;;;20.60;63.80;22.30;101378.00;;;;4948464;29;20191;-81
2023/09/29 00:24:56;;;;;;;4.45;2.15;;;20.60;63.80;22.30;101381.00;;;;4950357;28;20222;-82
2023/09/29 00:27:23;;;;;;;4.00;1.75;;;20.60;63.80;22.30;101371.00;;;;4950344;28;20633;-82
2023/09/29 00:29:52;;;;;;;7.00;2.15;;;20.60;63.80;22.30;101374.00;;;;4949291;28;20205;-82
2023/09/29 00:32:19;;;;;;;3.30;1.77;;;20.60;63.90;22.30;101366.00;;;;4954263;28;20226;-81
2023/09/29 00:34:46;;;;;;;4.95;1.73;;;20.60;63.80;22.30;101367.00;;;;4950615;28;20206;-82
2023/09/29 00:37:14;;;;;;;4.68;1.52;;;20.60;63.90;22.30;101368.00;;;;4950616;28;20198;-82
2023/09/29 00:39:42;;;;;;;5.57;2.25;;;20.70;63.90;22.40;101368.00;;;;4946932;28;20219;-83
2023/09/29 00:42:09;;;;;;;3.13;1.20;;;20.70;63.80;22.40;101365.00;;;;4949827;28;20214;-81
2023/09/29 00:44:36;;;;;;;4.60;1.95;;;20.70;63.90;22.40;101364.00;;;;4949960;29;20551;-81
2023/09/29 00:47:05;;;;;;;5.07;1.92;;;20.70;63.80;22.40;101345.00;;;;4950644;28;20289;-81
2023/09/29 00:49:34;;;;;;;4.88;1.80;;;20.70;63.80;22.40;101347.00;;;;4952419;28;20254;-81
2023/09/29 00:52:04;;;;;;;5.40;2.33;;;20.70;63.70;22.40;101355.00;;;;4950119;28;20201;-81
2023/09/29 00:54:34;;;;;;;5.30;2.17;;;20.70;63.80;22.40;101351.00;;;;4949908;28;20663;-81
2023/09/29 00:57:05;;;;;;;5.05;1.50;;;20.70;63.70;22.40;101347.00;;;;4949171;28;20191;-81
2023/09/29 00:59:34;;;;;;;4.22;1.45;;;20.80;63.80;22.50;101342.00;;;;4949636;28;20231;-80
2023/09/29 01:02:05;;;;;;;5.60;2.03;;;20.80;63.80;22.50;101331.00;;;;4948355;28;20660;-82
2023/09/29 01:04:34;;;;;;;5.28;2.15;;;20.80;63.70;22.50;101329.00;;;;4949968;28;20203;-83
2023/09/29 01:07:03;;;;;;;4.38;1.70;;;20.80;63.80;22.50;101329.00;;;;4960985;28;20195;-81
2023/09/29 01:09:30;;;;;;;7.45;2.20;;;20.90;63.80;22.50;101328.00;;;;4937644;29;20223;-84
2023/09/29 01:12:00;;;;;;;4.38;1.73;;;20.90;63.70;22.50;101330.00;;;;4949934;29;20687;-80
2023/09/29 01:14:27;;;;;;;3.70;1.80;;;20.90;63.70;22.50;101324.00;;;;4949883;28;20195;-81
2023/09/29 01:16:54;;;;;;;3.67;1.75;;;20.90;63.70;22.60;101322.00;;;;4948780;28;20768;-81
2023/09/29 01:19:21;;;;;;;5.95;2.17;;;20.90;63.70;22.60;101323.00;;;;4948326;29;20713;-80
2023/09/29 01:21:51;;;;;;;6.47;1.88;;;20.90;63.70;22.60;101319.00;;;;4953593;28;20294;-79
2023/09/29 01:24:21;;;;;;;4.95;2.47;;;20.90;63.70;22.60;101309.00;;;;4950807;28;20252;-82
2023/09/29 01:26:48;;;;;;;4.72;1.95;;;21.00;63.70;22.60;101308.00;;;;4948587;29;20713;-81
2023/09/29 01:29:16;;;;;;;12.10;2.50;;;21.00;63.70;22.60;101307.00;;;;4950083;28;20272;-81
2023/09/29 01:31:44;;;;;;;3.97;1.50;;;21.00;63.70;22.60;101298.00;;;;4950184;29;20664;-80
2023/09/29 01:34:12;;;;;;;8.10;2.78;;;21.00;63.70;22.70;101298.00;;;;4950130;28;20222;-82
2023/09/29 01:36:40;;;;;;;6.28;2.25;;;21.10;63.70;22.70;101293.00;;;;4950038;29;20265;-80
2023/09/29 01:39:08;;;;;;;6.00;2.20;;;21.10;63.70;22.70;101290.00;;;;4953566;28;20223;-80
2023/09/29 01:41:37;;;;;;;6.30;2.20;;;21.10;63.70;22.70;101297.00;;;;4952575;28;20249;-82
2023/09/29 01:44:05;;;;;;;3.42;1.88;;;21.10;63.70;22.80;101293.00;;;;4953429;29;20199;-81
2023/09/29 01:46:33;;;;;;;5.07;2.00;;;21.10;63.70;22.80;101295.00;;;;4953230;28;20199;-81
2023/09/29 01:49:00;;;;;;;4.32;1.95;;;21.20;63.70;22.80;101304.00;;;;4951607;28;20681;-81
2023/09/29 01:51:29;;;;;;;6.10;2.10;;;21.20;63.70;22.80;101294.00;;;;4951954;28;20202;-81
2023/09/29 01:53:57;;;;;;;5.55;2.40;;;21.20;63.70;22.80;101294.00;;;;4953182;28;20226;-81
2023/09/29 01:56:24;;;;;;;6.22;2.45;;;21.20;63.70;22.80;101286.00;;;;4956499;28;20253;-81
2023/09/29 01:58:52;;;;;;;4.55;2.60;;;21.20;63.70;22.90;101293.00;;;;4952071;28;20223;-82
2023/09/29 02:01:20;;;;;;;5.68;2.08;;;21.30;63.80;22.90;101286.00;;;;4952891;28;20290;-81
2023/09/29 02:03:48;;;;;;;7.55;2.30;;;21.30;63.80;22.90;101290.00;;;;4952618;28;20202;-81
2023/09/29 02:06:17;;;;;;;5.07;1.95;;;21.30;63.70;22.90;101275.00;;;;4951525;28;20207;-81
2023/09/29 02:08:44;;;;;;;4.93;2.03;;;21.30;63.70;22.90;101280.00;;;;4951421;29;20207;-81
2023/09/29 02:11:12;;;;;;;9.75;3.10;;;21.30;63.70;22.90;101282.00;;;;4952701;29;20219;-81
2023/09/29 02:13:39;;;;;;;2.50;1.48;;;21.30;63.60;23.00;101283.00;;;;4968643;28;20207;-82
2023/09/29 02:16:12;;;;;;;5.53;2.40;;;21.30;63.60;22.90;101285.00;;;;4953818;28;20198;-82
2023/09/29 02:18:39;;;;;;;8.45;2.35;;;21.30;63.70;23.00;101280.00;;;;4953370;28;20859;-82
2023/09/29 02:21:09;;;;;;;4.55;2.10;;;21.30;63.60;23.00;101278.00;;;;4954091;28;20199;-81
2023/09/29 02:23:38;;;;;;;7.25;2.70;;;21.40;63.60;22.90;101273.00;;;;4950297;28;20258;-81
2023/09/29 02:26:05;;;;;;;4.90;2.70;;;21.40;63.50;23.00;101272.00;;;;4941602;28;20199;-82
2023/09/29 02:28:33;;;;;;;5.63;2.40;;;21.40;63.50;23.00;101273.00;;;;4950631;29;20619;-83
2023/09/29 02:31:02;;;;;;;5.82;2.25;;;21.40;63.40;23.00;101269.00;;;;4985438;28;20211;-83
2023/09/29 02:33:31;;;;;;;5.72;2.88;;;21.40;63.40;22.90;101270.00;;;;4951292;29;20718;-82
2023/09/29 02:35:58;;;;;;;5.82;2.33;;;21.30;64.00;23.00;101263.00;;;;4951381;28;20290;-80
2023/09/29 02:38:25;;;;;;;5.32;2.38;;;21.40;64.00;23.00;101258.00;;;;4947416;28;20195;-80
2023/09/29 02:40:54;;;;;;;6.65;2.70;;;21.40;63.30;23.00;101266.00;;;;4948278;28;20233;-80
2023/09/29 02:43:21;;;;;;;5.50;1.98;;;21.40;63.30;23.00;101262.00;;;;4952761;29;20199;-82
2023/09/29 02:45:48;;;;;;;5.50;2.22;;;21.40;63.30;23.00;101257.00;;;;4952561;29;20214;-80
2023/09/29 02:48:15;;;;;;;5.28;2.38;;;21.40;63.40;23.00;101250.00;;;;4960991;28;20318;-81
2023/09/29 02:50:45;;;;;;;4.95;2.70;;;21.40;63.30;23.00;101251.00;;;;4951448;28;20205;-82
2023/09/29 02:53:12;;;;;;;4.68;2.47;;;21.40;63.20;23.00;101242.00;;;;4951582;28;20203;-83
2023/09/29 02:55:39;;;;;;;6.30;2.53;;;21.40;63.20;23.00;101240.00;;;;4951542;29;20234;-80
2023/09/29 02:58:07;;;;;;;5.22;2.35;;;21.40;63.20;23.00;101238.00;;;;4950890;29;20199;-81
2023/09/29 03:00:35;;;;;;;5.07;2.53;;;21.40;63.20;23.00;101231.00;;;;4951187;28;20231;-81
2023/09/29 03:03:03;;;;;;;6.05;2.22;;;21.40;63.10;23.10;101228.00;;;;4951042;28;20196;-83
2023/09/29 03:05:30;;;;;;;3.53;1.80;;;21.50;63.10;23.00;101233.00;;;;4963561;28;20195;-82
2023/09/29 03:07:59;;;;;;;5.97;2.38;;;21.50;63.20;23.00;101229.00;;;;4950842;28;20210;-80
2023/09/29 03:10:29;;;;;;;6.10;2.75;;;21.50;63.10;23.00;101223.00;;;;4951631;28;20214;-83
2023/09/29 03:12:56;;;;;;;4.68;2.53;;;21.50;63.10;23.00;101224.00;;;;4951718;29;20199;-82
2023/09/29 03:15:24;;;;;;;4.63;2.33;;;21.50;63.10;23.00;101231.00;;;;4950899;28;20664;-79
2023/09/29 03:17:55;;;;;;;7.50;2.72;;;21.50;63.00;23.10;101222.00;;;;4949458;28;20206;-81
2023/09/29 03:20:22;;;;;;;3.47;2.33;;;21.50;63.00;23.10;101218.00;;;;4950903;28;20574;-82
2023/09/29 03:22:49;;;;;;;9.77;2.53;;;21.50;63.10;23.10;101207.00;;;;4955063;28;20206;-81
2023/09/29 03:25:19;;;;;;;5.13;2.40;;;21.50;63.10;23.00;101201.00;;;;4950791;28;20199;-81
2023/09/29 03:27:48;;;;;;;3.00;1.88;;;21.50;63.10;23.10;101202.00;;;;4950669;29;20203;-81
2023/09/29 03:30:16;;;;;;;3.47;1.92;;;21.50;63.10;23.10;101200.00;;;;4950484;28;20191;-82
2023/09/29 03:32:43;;;;;;;4.60;2.50;;;21.50;63.10;23.10;101206.00;;;;4946358;28;20207;-81
2023/09/29 03:35:11;;;;;;;5.90;2.13;;;21.50;63.00;23.10;101199.00;;;;4951218;28;20203;-82
2023/09/29 03:37:39;;;;;;;3.35;1.77;;;21.50;63.10;23.10;101199.00;;;;4953280;28;20195;-79
2023/09/29 03:40:08;;;;;;;7.10;2.13;;;21.50;63.10;23.10;101182.00;;;;4949150;28;20223;-81
2023/09/29 03:42:41;;;;;;;4.45;2.40;;;21.50;63.00;23.10;101177.00;;;;4944099;29;20216;-82
2023/09/29 03:45:09;;;;;;;4.97;2.25;;;21.50;63.00;23.10;101187.00;;;;4932513;28;20210;-81
2023/09/29 03:47:36;;;;;;;3.92;2.10;;;21.50;62.90;23.10;101178.00;;;;4934557;29;20206;-82
2023/09/29 03:50:11;;;;;;;3.42;2.28;;;21.50;62.90;23.10;101185.00;;;;4947321;28;20770;-81
2023/09/29 03:52:39;;;;;;;5.60;1.90;;;21.50;63.00;23.10;101181.00;;;;4949649;28;20205;-83
2023/09/29 03:55:09;;;;;;;2.08;1.73;;;21.50;63.00;23.10;101180.00;;;;4953978;28;20207;-82
2023/09/29 03:57:41;;;;;;;4.32;2.13;;;21.60;63.00;23.10;101178.00;;;;4948936;29;20644;-82
2023/09/29 04:00:11;;;;;;;6.47;2.10;;;21.60;63.00;23.10;101171.00;;;;4945854;28;20724;-80
2023/09/29 04:02:40;;;;;;;5.35;2.63;;;21.60;62.90;23.20;101174.00;;;;4946153;29;20571;-81
2023/09/29 04:05:07;;;;;;;11.32;2.03;;;21.60;62.90;23.20;101177.00;;;;4946721;28;20206;-83
2023/09/29 04:07:36;;;;;;;4.78;2.22;;;21.60;63.00;23.20;101169.00;;;;4948579;29;20207;-81
2023/09/29 04:10:05;;;;;;;4.28;2.00;;;21.60;63.00;23.20;101169.00;;;;4947304;28;20277;-82
2023/09/29 04:12:32;;;;;;;3.05;1.63;;;21.60;63.00;23.20;101169.00;;;;4963614;28;20698;-82
2023/09/29 04:15:00;;;;;;;4.47;2.42;;;21.60;63.00;23.20;101159.00;;;;4950847;29;20202;-81
2023/09/29 04:17:27;;;;;;;2.75;1.92;;;21.60;63.00;23.20;101156.00;;;;4949849;28;20828;-82
2023/09/29 04:19:55;;;;;;;3.28;1.85;;;21.60;63.00;23.20;101158.00;;;;4950476;29;20249;-85
2023/09/29 04:22:24;;;;;;;6.70;2.30;;;21.60;62.90;23.20;101155.00;;;;4954919;28;20621;-81
2023/09/29 04:24:51;;;;;;;3.58;2.22;;;21.60;62.90;23.20;101154.00;;;;4949033;28;20665;-81
2023/09/29 04:27:18;;;;;;;4.43;1.85;;;21.60;62.90;23.20;101151.00;;;;4950206;29;20199;-82
2023/09/29 04:29:46;;;;;;;3.22;1.58;;;21.60;63.00;23.20;101143.00;;;;4957995;28;20225;-83
2023/09/29 04:32:14;;;;;;;3.60;2.25;;;21.60;63.00;23.20;101141.00;;;;4947230;28;20225;-82
2023/09/29 04:34:41;;;;;;;2.90;2.08;;;21.60;63.00;23.20;101134.00;;;;4950654;28;20286;-82
2023/09/29 04:37:08;;;;;;;4.25;2.13;;;21.70;63.10;23.20;101126.00;;;;4950501;29;20664;-81
2023/09/29 04:39:36;;;;;;;3.47;1.95;;;21.70;63.20;23.30;101132.00;;;;4949356;28;20706;-81
2023/09/29 04:42:05;;;;;;;6.68;2.00;;;21.70;63.20;23.20;101130.00;;;;4950109;28;20290;-81
2023/09/29 04:44:32;;;;;;;3.15;2.00;;;21.70;63.30;23.30;101125.00;;;;4949220;29;20729;-82
2023/09/29 04:47:00;;;;;;;2.78;1.88;;;21.70;63.30;23.30;101124.00;;;;4953128;28;20647;-82
2023/09/29 04:49:28;;;;;;;3.85;2.00;;;21.70;63.30;23.30;101129.00;;;;4950056;28;20241;-82
2023/09/29 04:51:55;;;;;;;3.10;1.65;;;21.70;63.40;23.30;101132.00;;;;4948479;29;20576;-83
2023/09/29 04:54:23;;;;;;;3.88;1.80;;;21.70;63.40;23.30;101138.00;;;;4983372;28;20203;-81
2023/09/29 04:56:50;;;;;;;5.40;2.15;;;21.70;63.50;23.30;101133.00;;;;4934101;28;20572;-81
2023/09/29 04:59:17;;;;;;;4.78;1.90;;;21.70;63.50;23.30;101126.00;;;;4948242;29;20641;-80
2023/09/29 05:01:44;;;;;;;2.50;1.95;;;21.70;63.60;23.30;101120.00;;;;4948357;29;20785;-81
2023/09/29 05:04:11;;;;;;;2.55;1.70;;;21.70;63.60;23.30;101131.00;;;;4959089;28;20199;-79
2023/09/29 05:06:39;;;;;;;3.33;1.80;;;21.70;63.70;23.30;101126.00;;;;4949127;28;20211;-81
2023/09/29 05:09:07;;;;;;;3.40;1.80;;;21.70;63.70;23.30;101124.00;;;;4944352;29;20201;-79
2023/09/29 05:11:34;;;;;;;4.00;1.90;;;21.70;63.80;23.30;101121.00;;;;4948010;28;20215;-81
2023/09/29 05:14:01;;;;;;;4.75;2.00;;;21.70;63.90;23.40;101122.00;;;;4950935;28;20199;-78
2023/09/29 05:16:28;;;;;;;2.42;1.73;;;21.70;63.90;23.40;101122.00;;;;4952331;29;20668;-79
2023/09/29 05:18:55;;;;;;;1.83;1.48;;;21.70;63.90;23.40;101119.00;;;;4961728;28;20667;-80
2023/09/29 05:21:24;;;;;;;3.05;1.85;;;21.70;64.70;23.30;101114.00;;;;4956410;28;20283;-81
2023/09/29 05:23:52;;;;;;;4.38;1.70;;;21.70;64.00;23.30;101115.00;;;;4951291;28;20211;-81
2023/09/29 05:26:19;;;;;;;5.78;1.92;;;21.70;64.10;23.40;101117.00;;;;4952447;29;20199;-81
2023/09/29 05:28:46;;;;;;;3.42;1.90;;;21.70;64.10;23.40;101116.00;;;;4962211;28;20213;-81
2023/09/29 05:31:13;;;;;;;3.45;1.58;;;21.70;64.10;23.40;101115.00;;;;4948918;28;20195;-82
2023/09/29 05:33:40;;;;;;;2.78;1.75;;;21.70;64.20;23.40;101116.00;;;;4951536;29;20207;-81
2023/09/29 05:36:08;;;;;;;5.00;1.95;;;21.70;64.20;23.40;101121.00;;;;4946141;29;20216;-82
2023/09/29 05:38:35;;;;;;;3.78;1.85;;;21.70;64.20;23.40;101120.00;;;;4944524;28;20207;-82
2023/09/29 05:41:04;;;;;;;1.98;1.50;;;21.70;64.20;23.30;101118.00;;;;4941177;28;20229;-82
2023/09/29 05:43:31;;;;;;;5.82;2.00;;;21.70;64.30;23.30;101120.00;;;;4952348;29;20729;-82
2023/09/29 05:45:59;;;;;;;3.17;2.22;;;21.70;64.30;23.30;101118.00;;;;4951903;28;20345;-83
2023/09/29 05:48:26;;;;;;;2.90;1.92;;;21.70;64.30;23.30;101122.00;;;;4951273;28;20302;-82
2023/09/29 05:50:53;;;;;;;3.90;2.03;;;21.70;64.40;23.40;101121.00;;;;4951105;28;20459;-82
2023/09/29 05:53:20;;;;;;;3.65;1.85;;;21.70;64.40;23.30;101122.00;;;;4952716;29;20191;-82
2023/09/29 05:55:48;;;;;;;8.45;2.05;;;21.70;64.40;23.40;101122.00;;;;4953717;28;20202;-82
2023/09/29 05:58:17;;;;;;;3.00;1.77;;;21.70;64.40;23.30;101124.00;;;;4940061;28;20582;-82
2023/09/29 06:00:44;;;;;;;4.88;1.60;;;21.70;64.50;23.30;101132.00;;;;4950732;28;20231;-83
2023/09/29 06:03:11;;;;;;;2.20;1.70;;;21.70;64.60;23.30;101129.00;;;;4948537;28;20206;-80
2023/09/29 06:05:39;;;;;;;2.70;1.60;;;21.70;64.60;23.40;101132.00;;;;4950455;28;20223;-80
2023/09/29 06:08:07;;;;;;;3.05;1.90;;;21.70;64.60;23.30;101129.00;;;;4953038;28;20674;-80
2023/09/29 06:10:34;;;;;;;2.78;1.52;;;21.70;64.70;23.40;101125.00;;;;4953751;28;20219;-78
2023/09/29 06:13:01;;;;;;;1.88;1.63;;;21.70;64.70;23.40;101121.00;;;;4965592;28;20207;-81
2023/09/29 06:15:30;;;;;;;4.70;1.85;;;21.70;64.80;23.40;101127.00;;;;4952518;29;20215;-80
2023/09/29 06:17:57;;;;;;;6.72;1.60;;;21.70;64.90;23.40;101124.00;;;;4951088;29;20204;-80
2023/09/29 06:20:24;;;;;;;1.92;1.38;;;21.80;65.00;23.40;101128.00;;;;4953320;29;20227;-79
2023/09/29 06:22:51;;;;;;;3.75;1.60;;;21.80;65.00;23.40;101126.00;;;;4953337;29;20570;-80
2023/09/29 06:25:18;;;;;;;2.65;1.33;;;21.80;65.10;23.40;101123.00;;;;4952131;28;20203;-78
2023/09/29 06:27:46;;;;;;;4.63;1.55;;;21.80;65.10;23.40;101125.00;;;;4949134;28;20257;-80
2023/09/29 06:30:13;;;;;;;4.10;1.40;;;21.80;65.20;23.40;101123.00;;;;4952014;29;20218;-82
2023/09/29 06:32:42;;;;;;;2.33;1.67;;;21.80;65.20;23.40;101124.00;;;;4952106;28;20230;-80
2023/09/29 06:35:12;;;;;;;3.47;1.48;;;21.80;65.30;23.40;101126.00;;;;4953000;29;20211;-81
2023/09/29 06:37:39;;;;;;;2.35;1.40;;;21.80;65.30;23.50;101129.00;;;;4951654;28;20657;-82
2023/09/29 06:40:10;;;;;;;2.55;1.52;;;21.90;65.50;23.50;101130.00;;;;4952801;29;20656;-79
2023/09/29 06:42:37;;;;;;;2.75;1.42;;;21.90;65.60;23.50;101127.00;;;;4933754;29;20215;-81
2023/09/29 06:45:07;;;;;;;1.98;1.58;;;21.90;65.50;23.60;101125.00;;;;4967085;28;20204;-81
2023/09/29 06:47:35;;;;;;;4.97;1.40;;;22.00;65.70;23.60;101131.00;;;;4948903;29;20694;-82
2023/09/29 06:50:03;;;;;;;1.85;1.58;;;22.00;65.70;23.60;101124.00;;;;4950253;28;20239;-80
2023/09/29 06:52:30;;;;;;;2.42;1.50;;;22.00;65.80;23.70;101130.00;;;;4951846;28;20199;-79
2023/09/29 06:54:57;;;;;;;3.10;1.92;;;22.10;65.80;23.70;101130.00;;;;4945071;29;20671;-82
2023/09/29 06:57:24;;;;;;;2.67;1.55;;;22.10;65.80;23.70;101139.00;;;;4950965;28;20195;-81
2023/09/29 06:59:51;;;;;;;1.73;1.25;;;22.20;65.90;23.80;101139.00;;;;4951777;29;20199;-82
2023/09/29 07:02:19;;;;;;;3.00;1.63;;;22.20;65.90;23.80;101140.00;;;;4944831;28;20222;-80
2023/09/29 07:04:47;;;;;;;2.30;1.35;;;22.20;65.80;23.80;101139.00;;;;4945877;29;20217;-80
2023/09/29 07:07:16;;;;;;;2.90;1.48;;;22.30;65.90;23.80;101143.00;;;;4950748;29;20207;-81
2023/09/29 07:09:43;;;;;;;5.70;1.70;;;22.30;65.90;23.90;101137.00;;;;4952159;29;20290;-81
2023/09/29 07:12:10;;;;;;;2.25;1.48;;;22.40;66.60;23.90;101135.00;;;;4952186;29;20303;-80
2023/09/29 07:14:38;;;;;;;2.38;1.40;;;22.40;65.90;24.00;101136.00;;;;4952358;29;20199;-80
2023/09/29 07:17:05;;;;;;;2.58;1.60;;;22.40;65.80;24.00;101145.00;;;;4951789;29;20203;-83
2023/09/29 07:19:33;;;;;;;4.40;1.70;;;22.50;65.90;24.10;101145.00;;;;4987697;28;20231;-83
2023/09/29 07:22:01;;;;;;;3.53;1.67;;;22.50;65.90;24.10;101152.00;;;;5052805;28;20289;-82
2023/09/29 07:24:30;;;;;;;2.38;1.27;;;22.50;65.90;24.10;101146.00;;;;4993811;28;20602;-81
2023/09/29 07:26:57;;;;;;;2.05;1.38;;;22.60;65.90;24.20;101149.00;;;;4950249;29;20204;-82
2023/09/29 07:29:24;;;;;;;4.25;1.73;;;22.60;65.90;24.20;101147.00;;;;4950597;29;20203;-81
2023/09/29 07:31:51;;;;;;;4.72;1.38;;;22.70;65.90;24.30;101150.00;;;;4950877;29;20203;-79
2023/09/29 07:34:18;;;;;;;1.95;1.40;;;22.70;65.90;24.30;101155.00;;;;4952528;28;20226;-82
2023/09/29 07:36:48;;;;;;;2.42;1.35;;;22.80;65.90;24.40;101150.00;;;;4954403;28;20214;-82
2023/09/29 07:39:15;;;;;;;2.80;1.48;;;22.80;66.00;24.50;101158.00;;;;4951911;28;20207;-82
2023/09/29 07:41:43;;;;;;;3.70;1.40;;;22.90;66.00;24.50;101153.00;;;;4951391;29;20237;-82
2023/09/29 07:44:11;;;;;;;3.78;1.80;;;23.00;66.10;24.60;101158.00;;;;4950051;28;20195;-81
2023/09/29 07:46:39;;;;;;;3.05;1.65;;;23.00;66.00;24.60;101154.00;;;;4951759;28;20285;-82
2023/09/29 07:49:07;;;;;;;2.75;1.80;;;23.00;65.90;24.60;101157.00;;;;4950006;28;20231;-83
2023/09/29 07:51:35;;;;;;;3.30;1.50;;;23.10;65.90;24.70;101151.00;;;;4951429;28;20213;-82
2023/09/29 07:54:02;;;;;;;2.42;1.65;;;23.10;65.90;24.70;101159.00;;;;4954974;28;20238;-80
2023/09/29 07:56:29;;;;;;;3.08;1.73;;;23.20;65.90;24.80;101163.00;;;;4951332;29;20668;-83
2023/09/29 07:58:58;;;;;;;1.45;1.35;;;23.20;65.80;24.80;101156.00;;;;4951141;28;20669;-81
2023/09/29 08:01:25;;;;;;;2.40;1.70;;;23.30;65.80;24.90;101163.00;;;;4951051;29;20234;-84
2023/09/29 08:03:52;;;;;;;2.67;1.73;;;23.30;65.70;24.90;101165.00;;;;4951410;29;20281;-83
2023/09/29 08:06:22;;;;;;;2.15;1.50;;;23.30;65.70;24.90;101168.00;;;;4951850;29;20603;-82
2023/09/29 08:08:49;;;;;;;1.60;1.20;;;23.40;65.70;25.00;101169.00;;;;4951073;28;20697;-84
2023/09/29 08:11:16;;;;;;;3.42;1.33;;;23.40;65.60;25.00;101172.00;;;;5019546;28;20226;-81
2023/09/29 08:13:43;;;;;;;2.53;1.45;;;23.50;65.70;25.10;101173.00;;;;5009083;28;20199;-83
2023/09/29 08:16:11;;;;;;;3.03;1.50;;;23.50;65.60;25.10;101173.00;;;;4951355;29;20195;-81
2023/09/29 08:18:38;;;;;;;10.77;1.27;;;23.50;65.50;25.10;101176.00;;;;4951119;29;20209;-81
2023/09/29 08:21:05;;;;;;;2.92;1.60;;;23.60;65.50;25.10;101173.00;;;;4951226;29;20314;-81
2023/09/29 08:23:32;;;;;;;3.10;1.92;;;23.60;65.40;25.10;101185.00;;;;4950883;29;20206;-82
2023/09/29 08:25:59;;;;;;;2.70;1.40;;;23.60;65.40;25.20;101173.00;;;;4951558;28;20199;-83
2023/09/29 08:28:26;;;;;;;1.73;1.10;;;23.60;65.40;25.20;101186.00;;;;4954486;28;20207;-84
2023/09/29 08:30:53;;;;;;;2.28;1.55;;;23.70;65.50;25.30;101184.00;;;;4949885;28;20690;-84
2023/09/29 08:33:23;;;;;;;3.08;1.30;;;23.70;65.50;25.30;101190.00;;;;4950636;29;20203;-83
2023/09/29 08:35:50;;;;;;;1.95;1.23;;;23.80;65.60;25.40;101190.00;;;;4951596;29;20235;-85
2023/09/29 08:38:17;;;;;;;4.07;1.65;;;23.80;65.60;25.40;101196.00;;;;4951159;28;20199;-80
2023/09/29 08:40:52;;;;;;;1.60;1.40;;;23.80;65.60;25.40;101200.00;;;;4951294;29;20196;-80
2023/09/29 08:43:19;;;;;;;2.25;1.40;;;23.90;65.60;25.50;101191.00;;;;4950800;29;20202;-83
2023/09/29 08:45:50;;;;;;;4.50;1.48;;;24.00;65.60;25.60;101201.00;;;;5040317;28;20295;-84
2023/09/29 08:48:18;;;;;;;2.03;1.45;;;24.00;65.50;25.60;101207.00;;;;4986614;28;20227;-85
2023/09/29 08:50:55;;;;;;;4.82;1.83;;;24.10;65.50;25.70;101205.00;;;;4950399;28;20571;-81
2023/09/29 08:53:26;;;;;;;5.03;1.65;;;24.20;65.50;25.70;101207.00;;;;4951059;29;20671;-82
2023/09/29 08:55:55;;;;;;;3.80;1.85;;;24.20;65.40;25.80;101202.00;;;;4950587;29;20203;-81
2023/09/29 08:58:24;;;;;;;3.42;1.38;;;24.30;65.30;25.90;101203.00;;;;4950895;29;20199;-80
2023/09/29 09:00:51;;;;;;;2.00;1.80;;;24.40;65.20;25.90;101207.00;;;;4950877;28;20202;-83
2023/09/29 09:03:19;;;;;;;2.10;1.33;;;24.40;65.00;25.90;101205.00;;;;4950568;28;20199;-80
2023/09/29 09:05:47;;;;;;;3.78;1.55;;;24.50;64.80;26.00;101205.00;;;;4950460;28;20344;-83
2023/09/29 09:08:16;;;;;;;3.03;1.48;;;24.50;64.80;26.10;101205.00;;;;4947371;29;20549;-79
2023/09/29 09:10:43;;;;;;;2.17;1.50;;;24.50;64.90;26.10;101216.00;;;;4950025;28;20226;-82
2023/09/29 09:13:10;;;;;;;13.00;2.00;;;24.60;65.70;26.20;101212.00;;;;4950672;29;20310;-83
2023/09/29 09:15:37;;;;;;;2.30;1.52;;;24.70;64.90;26.20;101202.00;;;;4950607;28;20199;-80
2023/09/29 09:18:05;;;;;;;2.42;1.65;;;24.70;64.80;26.30;101215.00;;;;4953999;28;20210;-82
2023/09/29 09:20:33;;;;;;;4.18;1.55;;;24.70;64.60;26.30;101220.00;;;;4949251;28;20661;-81
2023/09/29 09:23:04;;;;;;;6.13;1.92;;;24.80;64.40;26.30;101215.00;;;;4950158;28;20230;-79
2023/09/29 09:25:35;;;;;;;4.10;1.60;;;24.80;64.40;26.30;101225.00;;;;4950521;28;20290;-83
2023/09/29 09:28:02;;;;;;;1.95;1.60;;;24.90;64.40;26.40;101228.00;;;;4950617;28;20672;-81
2023/09/29 09:30:35;;;;;;;3.17;1.77;;;24.90;64.30;26.40;101232.00;;;;4950005;28;20199;-81
2023/09/29 09:33:04;;;;;;;1.95;1.50;;;24.90;64.20;26.40;101232.00;;;;4950830;28;20210;-80
2023/09/29 09:35:32;;;;;;;3.67;1.63;;;25.00;64.00;26.40;101230.00;;;;4985432;28;20192;-80
2023/09/29 09:38:02;;;;;;;1.58;1.48;;;25.00;63.80;26.40;101235.00;;;;4974320;28;20648;-80
2023/09/29 09:40:31;;;;;;;3.75;1.60;;;25.00;63.70;26.40;101240.00;;;;4949243;28;20206;-85
2023/09/29 09:43:02;;;;;;;2.95;1.25;;;25.00;63.60;26.40;101248.00;;;;4949703;28;20273;-81
2023/09/29 09:45:37;;;;;;;3.50;1.50;;;25.00;63.60;26.40;101243.00;;;;4950974;28;20629;-78
2023/09/29 09:48:07;;;;;;;3.17;1.45;;;25.00;63.50;26.40;101242.00;;;;4950230;28;20285;-84
2023/09/29 09:50:36;;;;;;;5.32;1.10;;;25.00;63.50;26.40;101245.00;;;;4946211;29;20207;-82
2023/09/29 09:53:08;;;;;;;2.08;1.02;;;25.00;63.50;26.40;101249.00;;;;4952939;28;20203;-81
2023/09/29 09:55:42;;;;;;;1.73;1.25;;;25.00;63.20;26.40;101252.00;;;;4949570;28;20284;-84
2023/09/29 09:58:13;;;;;;;3.60;1.30;;;25.00;63.20;26.40;101261.00;;;;4950080;28;20207;-81
2023/09/29 10:00:44;;;;;;;2.20;1.27;;;25.00;63.00;26.40;101254.00;;;;4951878;28;20199;-79
2023/09/29 10:03:13;;;;;;;4.55;1.25;;;25.00;63.00;26.30;101260.00;;;;4953354;29;20237;-82
2023/09/29 10:05:44;;;;;;;4.93;1.67;;;25.00;63.00;26.30;101266.00;;;;4952705;28;20222;-81
2023/09/29 10:08:12;;;;;;;4.07;1.27;;;25.00;63.10;26.30;101273.00;;;;4952450;28;20207;-83
2023/09/29 10:10:42;;;;;;;5.40;1.50;;;24.90;63.10;26.30;101273.00;;;;5035710;28;20231;-80
2023/09/29 10:13:12;;;;;;;6.55;1.65;;;24.90;63.20;26.30;101264.00;;;;5050236;28;20220;-81
2023/09/29 10:15:40;;;;;;;2.58;1.10;;;24.90;63.30;26.30;101262.00;;;;4933629;29;20701;-78
2023/09/29 10:18:19;;;;;;;2.00;1.08;;;24.90;63.50;26.20;101269.00;;;;4950797;28;20294;-80
2023/09/29 10:20:48;;;;;;;2.38;1.23;;;24.90;63.50;26.30;101270.00;;;;4953263;28;20199;-84
2023/09/29 10:23:18;;;;;;;2.50;1.25;;;24.90;63.50;26.20;101269.00;;;;4952762;29;20273;-81
2023/09/29 10:25:59;;;;;;;1.58;1.33;;;24.90;63.50;26.10;101290.00;;;;4955505;28;20276;-80
2023/09/29 10:28:32;;;;;;;1.27;0.93;;;24.90;64.20;26.20;101277.00;;;;4952736;28;20624;-82
2023/09/29 10:31:08;;;;;;;1.65;1.10;;;24.90;63.50;26.10;101287.00;;;;4952584;28;20218;-78
2023/09/29 10:33:50;;;;;;;1.35;1.13;;;24.80;63.50;26.10;101287.00;;;;4952529;28;20426;-81
2023/09/29 10:36:18;;;;;;;3.00;1.40;;;24.80;63.60;26.20;101292.00;;;;4934005;28;20286;-83
2023/09/29 10:38:47;;;;;;;1.60;1.30;;;24.80;63.60;26.10;101291.00;;;;4934178;28;20216;-81
2023/09/29 10:41:15;;;;;;;3.22;1.17;;;24.80;63.70;26.10;101291.00;;;;4946015;28;20210;-81
2023/09/29 10:43:47;;;;;;;3.25;1.67;;;24.70;63.60;26.10;101298.00;;;;4996300;28;20295;-80
2023/09/29 10:46:16;;;;;;;2.47;1.70;;;24.70;63.70;26.10;101291.00;;;;5053965;28;20286;-82
2023/09/29 10:48:47;;;;;;;2.63;1.23;;;24.70;63.70;26.00;101293.00;;;;4985066;28;20230;-80
2023/09/29 10:51:23;;;;;;;3.60;1.55;;;24.70;63.80;26.00;101292.00;;;;4949434;28;20199;-81